createdAt,value
2022-07-29T00:00:01.150Z,59.81
2022-07-29T00:02:28.822Z,59.64
2022-07-29T00:04:55.739Z,59.36
2022-07-29T00:07:22.659Z,59.14
2022-07-29T00:09:51.309Z,59.69
2022-07-29T00:12:26.318Z,59.51
2022-07-29T00:14:57.748Z,59.93
2022-07-29T00:17:25.737Z,60.34
2022-07-29T00:19:53.009Z,60.39
2022-07-29T00:22:21.118Z,60.52
2022-07-29T00:24:51.167Z,60.44
2022-07-29T00:27:19.119Z,60.26
2022-07-29T00:29:46.502Z,60.39
2022-07-29T00:32:13.338Z,60.36
2022-07-29T00:34:40.308Z,60.34
2022-07-29T00:37:07.878Z,60.22
2022-07-29T00:39:35.022Z,60.36
2022-07-29T00:42:05.117Z,60.27
2022-07-29T00:44:31.991Z,60.62
2022-07-29T00:46:58.864Z,60.45
2022-07-29T00:49:25.837Z,60.26
2022-07-29T00:51:52.672Z,60.80
2022-07-29T00:54:19.699Z,61.02
2022-07-29T00:56:46.640Z,61.47
2022-07-29T00:59:13.484Z,61.12
2022-07-29T01:01:40.402Z,61.01
2022-07-29T01:04:08.242Z,61.15
2022-07-29T01:06:35.749Z,61.35
2022-07-29T01:09:02.972Z,61.84
2022-07-29T01:11:29.944Z,61.52
2022-07-29T01:13:57.984Z,61.49
2022-07-29T01:16:34.288Z,61.35
2022-07-29T01:19:26.972Z,61.37
2022-07-29T01:22:01.520Z,61.49
2022-07-29T01:24:34.925Z,61.46
2022-07-29T01:27:48.214Z,61.57
2022-07-29T01:30:16.010Z,61.69
2022-07-29T01:32:48.677Z,61.62
2022-07-29T01:35:22.833Z,62.10
2022-07-29T01:38:09.417Z,61.74
2022-07-29T01:40:47.710Z,61.92
2022-07-29T01:43:18.727Z,62.50
2022-07-29T01:45:57.374Z,62.13
2022-07-29T01:48:32.285Z,61.85
2022-07-29T01:51:20.706Z,61.86
2022-07-29T01:53:55.207Z,61.90
2022-07-29T01:56:25.268Z,62.29
2022-07-29T01:58:54.379Z,62.42
2022-07-29T02:01:25.258Z,62.52
2022-07-29T02:03:54.511Z,62.45
2022-07-29T02:06:23.629Z,62.51
2022-07-29T02:08:53.761Z,62.66
2022-07-29T02:11:20.827Z,63.20
2022-07-29T02:13:50.490Z,63.28
2022-07-29T02:16:20.197Z,63.14
2022-07-29T02:18:50.870Z,63.12
2022-07-29T02:21:24.129Z,63.38
2022-07-29T02:23:53.550Z,63.59
2022-07-29T02:26:24.323Z,63.19
2022-07-29T02:28:55.041Z,63.51
2022-07-29T02:31:26.645Z,63.91
2022-07-29T02:33:55.784Z,63.55
2022-07-29T02:36:24.635Z,63.63
2022-07-29T02:38:52.484Z,63.04
2022-07-29T02:41:30.602Z,63.43
2022-07-29T02:44:04.812Z,63.32
2022-07-29T02:46:37.765Z,63.67
2022-07-29T02:49:16.497Z,63.86
2022-07-29T02:52:09.551Z,63.75
2022-07-29T02:54:42.203Z,63.84
2022-07-29T02:57:24.090Z,63.88
2022-07-29T02:59:53.997Z,64.03
2022-07-29T03:02:22.734Z,64.67
2022-07-29T03:04:51.827Z,64.38
2022-07-29T03:07:21.419Z,64.37
2022-07-29T03:09:49.056Z,64.87
2022-07-29T03:12:17.298Z,64.87
2022-07-29T03:14:45.407Z,64.89
2022-07-29T03:17:12.708Z,64.83
2022-07-29T03:19:40.758Z,64.52
2022-07-29T03:22:07.839Z,64.67
2022-07-29T03:24:36.827Z,65.18
2022-07-29T03:27:05.533Z,65.17
2022-07-29T03:29:34.513Z,64.73
2022-07-29T03:32:08.027Z,65.30
2022-07-29T03:34:37.116Z,65.09
2022-07-29T03:37:04.160Z,65.43
2022-07-29T03:39:36.258Z,65.52
2022-07-29T03:42:05.732Z,65.54
2022-07-29T03:44:33.700Z,65.63
2022-07-29T03:47:02.491Z,65.91
2022-07-29T03:49:30.678Z,65.99
2022-07-29T03:51:57.854Z,66.03
2022-07-29T03:54:24.733Z,66.45
2022-07-29T03:56:53.851Z,66.38
2022-07-29T03:59:22.175Z,66.29
2022-07-29T04:01:50.148Z,66.38
2022-07-29T04:04:18.052Z,66.26
2022-07-29T04:06:48.360Z,66.27
2022-07-29T04:09:15.746Z,66.44
2022-07-29T04:12:03.565Z,67.17
2022-07-29T04:14:31.791Z,67.12
2022-07-29T04:16:58.635Z,67.67
2022-07-29T04:19:25.740Z,68.25
2022-07-29T04:21:52.596Z,67.18
2022-07-29T04:24:19.722Z,67.09
2022-07-29T04:26:48.194Z,67.30
2022-07-29T04:29:14.925Z,67.47
2022-07-29T04:31:42.699Z,66.75
2022-07-29T04:34:09.741Z,66.92
2022-07-29T04:36:36.516Z,67.29
2022-07-29T04:39:04.273Z,66.68
2022-07-29T04:41:32.995Z,66.65
2022-07-29T04:44:00.907Z,67.17
2022-07-29T04:46:28.448Z,67.16
2022-07-29T04:48:55.371Z,67.06
2022-07-29T04:51:22.220Z,67.18
2022-07-29T04:53:49.071Z,66.89
2022-07-29T04:56:15.857Z,66.93
2022-07-29T04:58:42.682Z,66.75
2022-07-29T05:01:09.466Z,67.33
2022-07-29T05:03:36.328Z,67.18
2022-07-29T05:06:03.188Z,67.63
2022-07-29T05:08:30.165Z,67.43
2022-07-29T05:10:57.110Z,67.34
2022-07-29T05:13:23.943Z,67.20
2022-07-29T05:15:50.758Z,66.68
2022-07-29T05:18:17.572Z,66.85
2022-07-29T05:20:44.356Z,66.57
2022-07-29T05:23:11.105Z,66.40
2022-07-29T05:25:43.160Z,66.02
2022-07-29T05:28:11.445Z,65.42
2022-07-29T05:30:38.423Z,66.01
2022-07-29T05:33:05.220Z,64.58
2022-07-29T05:35:32.121Z,63.33
2022-07-29T05:37:58.896Z,62.87
2022-07-29T05:40:25.654Z,63.24
2022-07-29T05:42:52.697Z,63.04
2022-07-29T05:45:19.477Z,63.96
2022-07-29T05:47:46.289Z,62.79
2022-07-29T05:50:14.160Z,62.09
2022-07-29T05:52:41.034Z,61.76
2022-07-29T05:55:08.297Z,61.64
2022-07-29T05:57:35.068Z,63.00
2022-07-29T06:00:02.103Z,61.34
2022-07-29T06:02:39.128Z,60.73
2022-07-29T06:05:06.565Z,60.48
2022-07-29T06:07:38.671Z,61.03
2022-07-29T06:10:16.414Z,60.11
2022-07-29T06:12:43.204Z,60.09
2022-07-29T06:15:10.554Z,60.11
2022-07-29T06:17:37.421Z,60.05
2022-07-29T06:20:27.024Z,60.64
2022-07-29T06:22:54.132Z,60.80
2022-07-29T06:25:21.005Z,61.22
2022-07-29T06:27:47.885Z,61.32
2022-07-29T06:30:14.849Z,61.61
2022-07-29T06:32:43.362Z,62.01
2022-07-29T06:35:38.947Z,61.73
2022-07-29T06:37:58.021Z,62.25
2022-07-29T06:40:26.672Z,62.64
2022-07-29T06:42:53.611Z,62.08
2022-07-29T06:45:20.515Z,62.72
2022-07-29T06:47:47.482Z,62.10
2022-07-29T06:50:14.245Z,61.96
2022-07-29T06:52:41.375Z,61.95
2022-07-29T06:55:08.752Z,61.16
2022-07-29T06:57:35.735Z,61.09
2022-07-29T07:00:02.658Z,61.09
2022-07-29T07:02:29.530Z,61.32
2022-07-29T07:04:56.330Z,60.92
2022-07-29T07:07:23.212Z,60.72
2022-07-29T07:09:49.948Z,60.96
2022-07-29T07:12:16.930Z,60.65
2022-07-29T07:14:43.689Z,60.69
2022-07-29T07:17:10.503Z,60.65
2022-07-29T07:19:37.293Z,60.54
2022-07-29T07:22:04.092Z,60.47
2022-07-29T07:24:31.800Z,61.63
2022-07-29T07:26:58.629Z,60.22
2022-07-29T07:29:25.411Z,60.48
2022-07-29T07:31:55.168Z,61.12
2022-07-29T07:34:29.459Z,60.90
2022-07-29T07:36:56.727Z,60.64
2022-07-29T07:39:23.514Z,60.49
2022-07-29T07:41:50.547Z,60.22
2022-07-29T07:44:17.749Z,59.89
2022-07-29T07:46:44.795Z,61.81
2022-07-29T07:49:12.475Z,60.17
2022-07-29T07:51:39.387Z,59.39
2022-07-29T07:54:06.188Z,59.23
2022-07-29T07:56:35.392Z,60.02
2022-07-29T07:59:02.287Z,59.82
2022-07-29T08:01:29.202Z,58.10
2022-07-29T08:04:15.329Z,58.21
2022-07-29T08:06:42.816Z,57.81
2022-07-29T08:09:28.139Z,57.53
2022-07-29T08:11:56.529Z,56.71
2022-07-29T08:14:23.290Z,57.62
2022-07-29T08:16:50.181Z,57.29
2022-07-29T08:19:17.207Z,57.67
2022-07-29T08:21:44.091Z,56.67
2022-07-29T08:24:10.852Z,55.77
2022-07-29T08:26:37.568Z,55.30
2022-07-29T08:29:04.395Z,55.40
2022-07-29T08:31:31.269Z,55.59
2022-07-29T08:33:58.094Z,53.73
2022-07-29T08:36:25.616Z,54.38
2022-07-29T08:38:52.399Z,53.19
2022-07-29T08:41:20.840Z,52.90
2022-07-29T08:43:48.657Z,52.00
2022-07-29T08:46:15.568Z,52.35
2022-07-29T08:48:42.741Z,53.80
2022-07-29T08:51:10.526Z,52.00
2022-07-29T08:53:37.581Z,52.36
2022-07-29T08:56:04.651Z,53.50
2022-07-29T08:58:36.876Z,52.50
2022-07-29T09:01:06.896Z,52.13
2022-07-29T09:03:37.433Z,52.27
2022-07-29T09:06:05.111Z,52.67
2022-07-29T09:08:33.643Z,52.36
2022-07-29T09:11:04.097Z,52.25
2022-07-29T09:13:32.184Z,51.80
2022-07-29T09:15:59.007Z,51.31
2022-07-29T09:18:35.887Z,52.16
2022-07-29T09:21:04.329Z,51.42
2022-07-29T09:23:31.091Z,52.08
2022-07-29T09:26:06.811Z,51.00
2022-07-29T09:28:33.768Z,51.67
2022-07-29T09:31:00.570Z,50.51
2022-07-29T09:33:36.161Z,50.83
2022-07-29T09:36:07.608Z,51.37
2022-07-29T09:38:35.672Z,50.42
2022-07-29T09:41:06.489Z,50.65
2022-07-29T09:43:34.363Z,51.14
2022-07-29T09:46:19.196Z,52.30
2022-07-29T09:48:46.037Z,51.19
2022-07-29T09:51:24.179Z,51.48
2022-07-29T09:53:53.856Z,50.14
2022-07-29T09:56:20.647Z,51.54
2022-07-29T09:58:47.435Z,49.87
2022-07-29T10:01:14.322Z,50.14
2022-07-29T10:03:54.177Z,49.11
2022-07-29T10:06:21.124Z,48.92
2022-07-29T10:08:48.529Z,48.77
2022-07-29T10:11:18.196Z,48.62
2022-07-29T10:13:47.195Z,48.66
2022-07-29T10:16:15.313Z,48.17
2022-07-29T10:18:44.451Z,47.73
2022-07-29T10:21:22.606Z,47.80
2022-07-29T10:24:01.310Z,47.12
2022-07-29T10:26:30.558Z,46.94
2022-07-29T10:28:57.321Z,47.10
2022-07-29T10:31:37.659Z,46.68
2022-07-29T10:34:33.922Z,47.44
2022-07-29T10:37:14.115Z,46.37
2022-07-29T10:40:28.623Z,46.72
2022-07-29T10:43:01.682Z,47.08
2022-07-29T10:45:30.796Z,46.94
2022-07-29T10:48:05.794Z,47.78
2022-07-29T10:51:06.866Z,47.37
2022-07-29T10:53:51.535Z,46.44
2022-07-29T10:56:29.708Z,46.28
2022-07-29T10:59:22.743Z,46.02
2022-07-29T11:01:54.400Z,45.97
2022-07-29T11:04:44.579Z,46.86
2022-07-29T11:07:12.011Z,46.18
2022-07-29T11:09:38.873Z,45.93
2022-07-29T11:12:39.252Z,45.82
2022-07-29T11:15:08.419Z,45.26
2022-07-29T11:17:53.547Z,47.25
2022-07-29T11:20:41.552Z,46.43
2022-07-29T11:23:33.362Z,46.01
2022-07-29T11:26:12.809Z,46.33
2022-07-29T11:29:18.081Z,46.52
2022-07-29T11:31:47.791Z,46.56
2022-07-29T11:34:27.801Z,45.99
2022-07-29T11:37:08.300Z,44.87
2022-07-29T11:39:40.053Z,45.02
2022-07-29T11:42:32.323Z,44.86
2022-07-29T11:45:41.751Z,45.12
2022-07-29T11:48:28.002Z,45.44
2022-07-29T11:50:48.849Z,45.80
2022-07-29T11:53:16.466Z,45.78
2022-07-29T11:55:51.095Z,45.78
2022-07-29T11:58:24.840Z,45.61
2022-07-29T12:00:53.198Z,44.85
2022-07-29T12:03:33.545Z,44.28
2022-07-29T12:09:11.204Z,44.67
2022-07-29T12:11:41.619Z,44.57
2022-07-29T12:14:34.485Z,44.30
2022-07-29T12:17:01.541Z,44.31
2022-07-29T12:19:28.413Z,43.79
2022-07-29T12:21:59.775Z,43.25
2022-07-29T12:24:44.976Z,44.19
2022-07-29T12:27:12.956Z,43.50
2022-07-29T12:29:41.989Z,44.25
2022-07-29T12:32:19.409Z,44.63
2022-07-29T12:34:47.312Z,43.77
2022-07-29T12:37:14.410Z,43.84
2022-07-29T12:39:41.366Z,44.88
2022-07-29T12:42:18.445Z,44.40
2022-07-29T12:44:51.222Z,44.29
2022-07-29T12:47:20.286Z,44.14
2022-07-29T12:49:47.514Z,44.21
2022-07-29T12:52:29.824Z,44.29
2022-07-29T12:54:57.159Z,44.27
2022-07-29T12:57:24.366Z,44.68
2022-07-29T13:00:06.009Z,44.87
2022-07-29T13:02:33.018Z,45.55
2022-07-29T13:05:00.966Z,45.87
2022-07-29T13:07:55.674Z,46.28
2022-07-29T13:10:24.423Z,46.58
2022-07-29T13:13:12.271Z,47.02
2022-07-29T13:16:08.461Z,47.25
2022-07-29T13:18:36.606Z,47.30
2022-07-29T13:21:15.203Z,47.84
2022-07-29T13:23:43.007Z,47.62
2022-07-29T13:26:11.973Z,48.12
2022-07-29T13:28:39.322Z,49.46
2022-07-29T13:31:06.311Z,50.39
2022-07-29T13:33:33.287Z,50.72
2022-07-29T13:36:00.076Z,50.98
2022-07-29T13:38:30.992Z,51.69
2022-07-29T13:40:58.893Z,52.32
2022-07-29T13:43:25.692Z,53.72
2022-07-29T13:45:52.553Z,54.74
2022-07-29T13:48:19.528Z,55.71
2022-07-29T13:50:46.335Z,57.07
2022-07-29T13:53:17.757Z,58.76
2022-07-29T13:55:45.379Z,59.77
2022-07-29T13:58:12.153Z,63.74
2022-07-29T14:00:39.010Z,65.69
2022-07-29T14:03:05.728Z,68.74
2022-07-29T14:05:32.589Z,71.14
2022-07-29T14:07:59.334Z,72.12
2022-07-29T14:10:27.480Z,73.16
2022-07-29T14:12:54.321Z,73.24
2022-07-29T14:15:21.129Z,75.44
2022-07-29T14:17:47.934Z,74.89
2022-07-29T14:20:14.674Z,74.73
2022-07-29T14:22:42.606Z,74.98
2022-07-29T14:25:14.379Z,76.46
2022-07-29T14:27:42.950Z,77.38
2022-07-29T14:30:10.466Z,78.05
2022-07-29T14:32:37.403Z,79.51
2022-07-29T14:35:05.414Z,80.48
2022-07-29T14:37:39.934Z,81.87
2022-07-29T14:40:11.926Z,82.72
2022-07-29T14:42:41.197Z,83.37
2022-07-29T14:45:10.385Z,83.71
2022-07-29T14:47:38.137Z,83.81
2022-07-29T14:50:05.713Z,85.53
2022-07-29T14:52:32.947Z,85.20
2022-07-29T14:54:59.837Z,84.03
2022-07-29T14:57:26.597Z,84.44
2022-07-29T14:59:53.459Z,85.07
2022-07-29T15:02:20.254Z,84.97
2022-07-29T15:04:47.239Z,84.59
2022-07-29T15:07:14.004Z,84.12
2022-07-29T15:09:49.996Z,85.42
2022-07-29T15:12:17.033Z,83.93
2022-07-29T15:14:44.023Z,83.06
2022-07-29T15:17:10.886Z,85.03
2022-07-29T15:19:37.874Z,84.99
2022-07-29T15:22:05.294Z,83.56
2022-07-29T15:24:32.534Z,82.60
2022-07-29T15:26:59.562Z,83.32
2022-07-29T15:29:26.463Z,83.38
2022-07-29T15:31:53.253Z,83.26
2022-07-29T15:34:20.075Z,82.38
2022-07-29T15:36:52.374Z,82.17
2022-07-29T15:39:20.328Z,82.40
2022-07-29T15:41:47.088Z,84.01
2022-07-29T15:44:13.948Z,83.91
2022-07-29T15:46:41.088Z,84.52
2022-07-29T15:49:08.574Z,84.15
2022-07-29T15:51:35.696Z,83.25
2022-07-29T15:54:03.910Z,85.06
2022-07-29T15:56:31.667Z,85.53
2022-07-29T15:58:58.600Z,82.50
2022-07-29T16:01:25.858Z,81.81
2022-07-29T16:03:53.254Z,82.62
2022-07-29T16:06:20.270Z,82.30
2022-07-29T16:08:47.191Z,83.12
2022-07-29T16:11:13.994Z,82.80
2022-07-29T16:13:40.790Z,81.70
2022-07-29T16:16:08.960Z,81.23
2022-07-29T16:18:35.879Z,82.02
2022-07-29T16:21:02.748Z,82.23
2022-07-29T16:23:29.624Z,79.82
2022-07-29T16:26:00.133Z,79.91
2022-07-29T16:28:28.705Z,79.67
2022-07-29T16:30:55.574Z,80.34
2022-07-29T16:33:22.563Z,80.05
2022-07-29T16:35:51.016Z,79.07
2022-07-29T16:38:17.809Z,78.23
2022-07-29T16:40:44.745Z,79.32
2022-07-29T16:43:11.468Z,76.70
2022-07-29T16:45:45.352Z,77.46
2022-07-29T16:48:14.151Z,77.64
2022-07-29T16:50:41.387Z,78.06
2022-07-29T16:53:10.677Z,75.34
2022-07-29T16:55:37.775Z,74.98
2022-07-29T16:58:04.901Z,75.47
2022-07-29T17:00:31.802Z,76.00
2022-07-29T17:02:59.468Z,75.03
2022-07-29T17:05:28.534Z,75.24
2022-07-29T17:07:55.602Z,74.50
2022-07-29T17:10:22.455Z,74.88
2022-07-29T17:12:49.644Z,75.28
2022-07-29T17:15:17.374Z,75.31
2022-07-29T17:17:55.243Z,75.01
2022-07-29T17:20:25.224Z,74.66
2022-07-29T17:22:52.125Z,74.57
2022-07-29T17:25:20.548Z,74.28
2022-07-29T17:27:50.739Z,74.34
2022-07-29T17:30:18.107Z,74.69
2022-07-29T17:32:45.160Z,74.90
2022-07-29T17:35:12.725Z,75.20
2022-07-29T17:37:40.351Z,74.21
2022-07-29T17:40:07.990Z,74.19
2022-07-29T17:42:34.804Z,74.67
2022-07-29T17:45:01.733Z,74.62
2022-07-29T17:47:28.546Z,74.85
2022-07-29T17:49:55.513Z,75.43
2022-07-29T17:52:22.264Z,75.30
2022-07-29T17:54:49.063Z,75.23
2022-07-29T17:57:16.107Z,75.61
2022-07-29T17:59:43.077Z,75.62
2022-07-29T18:02:10.023Z,75.72
2022-07-29T18:04:37.568Z,75.76
2022-07-29T18:07:04.958Z,75.76
2022-07-29T18:09:31.758Z,76.14
2022-07-29T18:11:58.500Z,75.82
2022-07-29T18:14:25.406Z,75.76
2022-07-29T18:16:52.259Z,75.77
2022-07-29T18:19:19.075Z,75.46
2022-07-29T18:21:54.569Z,75.50
2022-07-29T18:24:25.597Z,75.76
2022-07-29T18:26:53.723Z,75.95
2022-07-29T18:29:21.164Z,75.95
2022-07-29T18:31:47.988Z,75.96
2022-07-29T18:34:14.945Z,76.19
2022-07-29T18:36:41.684Z,76.00
2022-07-29T18:39:08.524Z,76.02
2022-07-29T18:41:35.744Z,76.23
2022-07-29T18:44:21.909Z,76.17
2022-07-29T18:46:51.924Z,76.56
2022-07-29T18:49:19.503Z,76.76
2022-07-29T18:51:46.397Z,76.77
2022-07-29T18:54:13.224Z,76.83
2022-07-29T18:56:39.987Z,76.90
2022-07-29T18:59:06.908Z,77.04
2022-07-29T19:01:33.701Z,77.00
2022-07-29T19:04:01.065Z,77.09
2022-07-29T19:06:27.888Z,77.15
2022-07-29T19:08:54.744Z,77.48
2022-07-29T19:11:21.817Z,77.68
2022-07-29T19:13:49.645Z,77.77
2022-07-29T19:16:16.805Z,78.35
2022-07-29T19:18:43.631Z,78.15
2022-07-29T19:21:11.153Z,78.78
2022-07-29T19:24:06.009Z,78.69
2022-07-29T19:26:26.277Z,78.90
2022-07-29T19:28:53.302Z,80.74
2022-07-29T19:31:20.279Z,82.08
2022-07-29T19:33:47.142Z,83.19
2022-07-29T19:36:14.024Z,84.31
2022-07-29T19:38:40.974Z,85.13
2022-07-29T19:41:07.791Z,86.07
2022-07-29T19:43:50.965Z,86.64
2022-07-29T19:46:23.215Z,86.63
2022-07-29T19:48:50.458Z,86.54
2022-07-29T19:51:17.405Z,86.42
2022-07-29T19:53:44.236Z,87.27
2022-07-29T19:56:10.985Z,87.23
2022-07-29T19:58:37.856Z,87.67
2022-07-29T20:01:10.284Z,87.76
2022-07-29T20:03:40.640Z,87.65
2022-07-29T20:06:07.645Z,88.07
2022-07-29T20:08:34.738Z,88.17
2022-07-29T20:11:01.968Z,87.59
2022-07-29T20:13:28.866Z,87.47
2022-07-29T20:15:55.660Z,87.53
2022-07-29T20:18:22.468Z,87.74
2022-07-29T20:20:49.310Z,88.06
2022-07-29T20:23:16.220Z,87.76
2022-07-29T20:25:43.118Z,87.35
2022-07-29T20:28:09.939Z,87.43
2022-07-29T20:30:38.528Z,87.21
2022-07-29T20:33:05.933Z,86.29
2022-07-29T20:35:32.880Z,85.05
2022-07-29T20:37:59.742Z,85.33
2022-07-29T20:40:27.991Z,85.77
2022-07-29T20:42:55.703Z,86.45
2022-07-29T20:45:23.656Z,86.72
2022-07-29T20:47:51.593Z,85.95
2022-07-29T20:50:19.553Z,85.55
2022-07-29T20:52:46.316Z,86.71
2022-07-29T20:55:13.058Z,87.34
2022-07-29T20:57:40.181Z,87.78
2022-07-29T21:00:07.618Z,87.89
2022-07-29T21:02:34.508Z,86.74
2022-07-29T21:05:01.398Z,86.75
2022-07-29T21:07:28.189Z,86.30
2022-07-29T21:09:55.035Z,85.43
2022-07-29T21:12:21.780Z,85.02
2022-07-29T21:14:48.580Z,84.77
2022-07-29T21:17:16.607Z,84.76
2022-07-29T21:19:43.389Z,84.60
2022-07-29T21:22:10.420Z,84.52
2022-07-29T21:24:37.211Z,83.99
2022-07-29T21:27:19.833Z,84.29
2022-07-29T21:29:47.791Z,84.33
2022-07-29T21:32:14.729Z,85.04
2022-07-29T21:34:56.244Z,84.28
2022-07-29T21:37:23.061Z,84.27
2022-07-29T21:39:49.894Z,84.62
2022-07-29T21:42:16.692Z,84.42
2022-07-29T21:44:43.568Z,84.01
2022-07-29T21:47:11.414Z,83.69
2022-07-29T21:49:39.134Z,83.13
2022-07-29T21:52:08.064Z,83.27
2022-07-29T21:54:35.748Z,83.11
2022-07-29T21:57:03.451Z,83.43
2022-07-29T21:59:30.698Z,82.69
2022-07-29T22:01:57.878Z,82.87
2022-07-29T22:04:24.797Z,82.14
2022-07-29T22:06:51.700Z,81.73
2022-07-29T22:09:18.428Z,81.60
2022-07-29T22:11:45.391Z,81.51
2022-07-29T22:14:12.119Z,81.48
2022-07-29T22:16:38.953Z,81.44
2022-07-29T22:19:05.840Z,81.01
2022-07-29T22:21:32.746Z,81.54
2022-07-29T22:24:01.633Z,82.13
2022-07-29T22:26:28.509Z,82.24
2022-07-29T22:28:55.342Z,83.88
2022-07-29T22:31:22.244Z,84.26
2022-07-29T22:33:53.209Z,84.08
2022-07-29T22:36:20.090Z,84.26
2022-07-29T22:38:51.535Z,83.69
2022-07-29T22:41:18.913Z,83.87
2022-07-29T22:43:45.689Z,83.40
2022-07-29T22:46:12.572Z,82.80
2022-07-29T22:48:39.430Z,82.18
2022-07-29T22:51:07.043Z,81.88
2022-07-29T22:53:33.946Z,82.11
2022-07-29T22:56:00.895Z,82.17
2022-07-29T22:58:27.685Z,83.14
2022-07-29T23:00:54.689Z,83.35
2022-07-29T23:03:21.946Z,83.27
2022-07-29T23:05:48.954Z,83.32
2022-07-29T23:08:15.791Z,82.85
2022-07-29T23:10:42.688Z,82.83
2022-07-29T23:13:09.563Z,82.77
2022-07-29T23:15:36.489Z,83.50
2022-07-29T23:18:03.368Z,83.92
2022-07-29T23:20:30.174Z,84.49
2022-07-29T23:22:56.937Z,85.03
2022-07-29T23:25:23.756Z,83.87
2022-07-29T23:27:50.638Z,85.63
2022-07-29T23:30:17.551Z,85.39
2022-07-29T23:32:44.339Z,83.28
2022-07-29T23:35:11.303Z,83.55
2022-07-29T23:37:38.222Z,83.52
2022-07-29T23:40:08.675Z,82.94
2022-07-29T23:42:37.819Z,82.52
2022-07-29T23:45:05.941Z,82.75
2022-07-29T23:47:32.699Z,82.60
2022-07-29T23:49:59.600Z,82.63
2022-07-29T23:52:26.831Z,82.68
2022-07-29T23:54:54.886Z,82.66
2022-07-29T23:57:41.689Z,82.79
